createdAt,value
2022-09-16T05:44:23.217Z,99464.03
2022-09-16T05:47:01.051Z,99452.84
2022-09-16T05:49:37.815Z,99458.72
2022-09-16T05:52:14.991Z,99459.22
2022-09-16T05:54:51.753Z,99456.13
2022-09-16T05:57:28.986Z,99457.47
2022-09-16T06:00:10.407Z,99464.19
2022-09-16T06:02:47.761Z,99459.94
2022-09-16T06:05:24.558Z,99460.03
2022-09-16T06:08:01.908Z,99474.38
2022-09-16T06:10:43.296Z,99468.16
2022-09-16T06:13:21.518Z,99454.56
2022-09-16T06:16:03.553Z,99447.31
2022-09-16T06:18:41.456Z,99453.19
2022-09-16T06:21:19.146Z,99448.09
2022-09-16T06:23:56.587Z,99444.97
2022-09-16T06:26:34.026Z,99448.56
2022-09-16T06:29:12.204Z,99432.81
2022-09-16T06:31:52.936Z,99446.84
2022-09-16T06:34:31.341Z,99418.19
2022-09-16T06:37:08.450Z,99420.38
2022-09-16T06:39:45.533Z,99423.25
2022-09-16T06:42:22.320Z,99427.88
2022-09-16T06:44:59.669Z,99410.75
2022-09-16T06:47:39.057Z,99425.06
2022-09-16T06:50:16.229Z,99419.38
2022-09-16T06:52:54.814Z,99430.53
2022-09-16T06:55:31.838Z,99408.75
2022-09-16T06:58:08.383Z,99417.94
2022-09-16T07:00:46.091Z,99411.59
2022-09-16T07:03:25.454Z,99421.56
2022-09-16T07:06:04.885Z,99425.91
2022-09-16T07:08:42.681Z,99430.22
2022-09-16T07:11:22.166Z,99439.88
2022-09-16T07:13:58.975Z,99422.28
2022-09-16T07:16:36.104Z,99416.31
2022-09-16T07:19:15.429Z,99425.69
2022-09-16T07:21:52.388Z,99435.19
2022-09-16T07:24:29.369Z,99428.41
2022-09-16T07:27:07.540Z,99436.41
2022-09-16T07:29:45.663Z,99435.91
2022-09-16T07:32:23.606Z,99429.44
2022-09-16T07:35:05.216Z,99421.63
2022-09-16T07:37:42.939Z,99433.47
2022-09-16T07:40:20.729Z,99425.53
2022-09-16T07:42:59.371Z,99450.16
2022-09-16T07:45:38.889Z,99427.22
2022-09-16T07:48:16.720Z,99429.88
2022-09-16T07:51:05.252Z,99440.22
2022-09-16T07:53:48.297Z,99432.88
2022-09-16T07:56:29.846Z,99434.41
2022-09-16T07:59:17.466Z,99438.09
2022-09-16T08:01:58.165Z,99445.59
2022-09-16T08:04:35.737Z,99440.25
2022-09-16T08:07:19.728Z,99445.97
2022-09-16T08:09:58.469Z,99439.63
2022-09-16T08:12:36.423Z,99459.28
2022-09-16T08:15:15.903Z,99452.78
2022-09-16T08:17:56.260Z,99457.09
2022-09-16T08:20:33.793Z,99457.88
2022-09-16T08:23:14.813Z,99468.69
2022-09-16T08:25:59.125Z,99468.69
2022-09-16T08:28:45.589Z,99484.50
2022-09-16T08:31:34.569Z,99463.84
2022-09-16T08:34:12.944Z,99468.94
2022-09-16T08:36:51.032Z,99466.81
2022-09-16T08:39:30.607Z,99461.16
2022-09-16T08:42:57.084Z,99453.19
2022-09-16T08:45:43.209Z,99446.22
2022-09-16T08:48:35.145Z,99449.56
2022-09-16T08:51:16.974Z,99436.94
2022-09-16T08:54:01.733Z,99442.31
2022-09-16T08:56:44.942Z,99443.66
2022-09-16T08:59:28.380Z,99450.50
2022-09-16T09:02:27.174Z,99439.34
2022-09-16T09:05:05.926Z,99434.69
2022-09-16T09:08:00.557Z,99455.69
2022-09-16T09:10:49.590Z,99452.19
2022-09-16T09:13:54.165Z,99461.34
2022-09-16T09:16:46.356Z,99455.00
2022-09-16T09:19:43.714Z,99470.69
2022-09-16T09:22:38.234Z,99456.16
2022-09-16T09:25:32.774Z,99449.66
2022-09-16T09:28:43.328Z,99457.66
2022-09-16T09:31:33.159Z,99461.00
2022-09-16T09:34:27.187Z,99470.13
2022-09-16T09:37:15.294Z,99455.81
2022-09-16T09:40:09.227Z,99445.25
2022-09-16T09:42:50.713Z,99452.22
2022-09-16T09:45:36.083Z,99451.31
2022-09-16T09:48:26.545Z,99452.88
2022-09-16T09:51:10.533Z,99445.66
2022-09-16T09:53:53.318Z,99457.56
2022-09-16T09:56:37.136Z,99458.00
2022-09-16T09:59:30.264Z,99470.50
2022-09-16T10:02:20.214Z,99474.66
2022-09-16T10:04:57.326Z,99465.88
2022-09-16T10:07:34.463Z,99460.03
2022-09-16T10:10:20.918Z,99475.25
2022-09-16T10:12:58.065Z,99474.44
2022-09-16T10:15:35.057Z,99500.63
2022-09-16T10:18:25.791Z,99471.91
2022-09-16T10:21:08.102Z,99466.00
2022-09-16T10:23:45.435Z,99458.06
2022-09-16T10:26:26.726Z,99477.69
2022-09-16T10:29:07.233Z,99462.31
2022-09-16T10:31:44.830Z,99456.88
2022-09-16T10:34:37.834Z,99478.97
2022-09-16T10:37:21.611Z,99462.78
2022-09-16T10:40:02.341Z,99456.63
2022-09-16T10:42:39.310Z,99469.66
2022-09-16T10:45:23.432Z,99480.94
2022-09-16T10:48:06.506Z,99469.59
2022-09-16T10:50:57.702Z,99467.66
2022-09-16T10:53:41.189Z,99470.25
2022-09-16T10:56:24.313Z,99502.88
2022-09-16T10:59:08.531Z,99478.31
2022-09-16T11:01:53.188Z,99481.81
2022-09-16T11:05:00.822Z,99507.72
2022-09-16T11:07:52.869Z,99499.22
2022-09-16T11:10:40.064Z,99493.22
2022-09-16T11:13:36.310Z,99481.16
2022-09-16T11:16:32.501Z,99485.78
2022-09-16T11:19:15.979Z,99483.78
2022-09-16T11:22:20.957Z,99480.06
2022-09-16T11:25:36.645Z,99472.41
2022-09-16T11:28:47.255Z,99481.00
2022-09-16T11:31:36.698Z,99481.28
2022-09-16T11:34:36.292Z,99484.88
2022-09-16T11:37:24.162Z,99491.31
2022-09-16T11:40:17.063Z,99511.56
2022-09-16T11:43:12.186Z,99513.25
2022-09-16T11:45:56.741Z,99497.38
2022-09-16T11:48:54.784Z,99495.28
2022-09-16T11:51:51.900Z,99504.78
2022-09-16T11:54:52.430Z,99497.41
2022-09-16T11:57:39.831Z,99507.66
2022-09-16T12:00:22.450Z,99495.09
2022-09-16T12:03:05.367Z,99484.53
2022-09-16T12:05:53.728Z,99501.22
2022-09-16T12:08:44.944Z,99518.41
2022-09-16T12:11:33.407Z,99516.13
2022-09-16T12:14:18.585Z,99483.06
2022-09-16T12:17:04.727Z,99504.50
2022-09-16T12:19:49.765Z,99499.50
2022-09-16T12:22:35.238Z,99492.28
2022-09-16T12:25:22.764Z,99494.50
2022-09-16T12:28:06.606Z,99490.63
2022-09-16T12:30:48.558Z,99496.16
2022-09-16T12:33:37.238Z,99490.53
2022-09-16T12:36:21.730Z,99509.66
2022-09-16T12:39:02.703Z,99496.25
2022-09-16T12:42:06.256Z,99479.34
2022-09-16T12:45:35.496Z,99490.13
2022-09-16T12:48:37.577Z,99465.72
2022-09-16T12:51:39.876Z,99482.31
2022-09-16T12:55:07.784Z,99493.56
2022-09-16T12:58:06.426Z,99486.19
2022-09-16T13:00:55.203Z,99491.25
2022-09-16T13:03:40.970Z,99512.03
2022-09-16T13:06:28.597Z,99481.34
2022-09-16T13:09:25.148Z,99470.63
2022-09-16T13:12:35.546Z,99493.28
2022-09-16T13:15:07.660Z,99489.34
2022-09-16T13:17:48.935Z,99485.25
2022-09-16T13:20:36.739Z,99504.28
2022-09-16T13:23:22.732Z,99512.97
2022-09-16T13:26:03.713Z,99504.78
2022-09-16T13:28:49.487Z,99488.94
2022-09-16T13:31:35.052Z,99480.44
2022-09-16T13:34:21.512Z,99491.91
2022-09-16T13:37:02.116Z,99495.13
2022-09-16T13:39:39.256Z,99493.03
2022-09-16T13:42:25.188Z,99479.63
2022-09-16T13:45:02.710Z,99486.38
2022-09-16T13:47:42.028Z,99487.09
2022-09-16T13:50:24.799Z,99494.88
2022-09-16T13:53:13.995Z,99481.28
2022-09-16T13:55:52.989Z,99495.03
2022-09-16T13:58:35.500Z,99475.69
2022-09-16T14:01:32.279Z,99479.03
2022-09-16T14:04:23.932Z,99494.56
2022-09-16T14:07:17.716Z,99493.50
2022-09-16T14:10:06.751Z,99498.59
2022-09-16T14:12:59.907Z,99496.94
2022-09-16T14:15:43.490Z,99481.16
2022-09-16T14:18:22.077Z,99485.41
2022-09-16T14:21:04.787Z,99476.63
2022-09-16T14:23:41.576Z,99478.78
2022-09-16T14:26:24.113Z,99490.28
2022-09-16T14:29:07.803Z,99496.13
2022-09-16T14:31:45.852Z,99496.31
2022-09-16T14:34:32.193Z,99487.44
2022-09-16T14:37:10.103Z,99491.22
2022-09-16T14:39:49.936Z,99489.94
2022-09-16T14:42:32.744Z,99503.88
2022-09-16T14:45:19.723Z,99494.56
2022-09-16T14:47:59.110Z,99507.94
2022-09-16T14:50:40.854Z,99503.53
2022-09-16T14:53:35.794Z,99500.28
2022-09-16T14:56:22.584Z,99499.94
2022-09-16T14:59:02.708Z,99531.03
2022-09-16T15:01:39.531Z,99507.47
2022-09-16T15:04:27.758Z,99507.38
2022-09-16T15:07:12.724Z,99512.50
2022-09-16T15:09:54.605Z,99501.56
2022-09-16T15:12:35.264Z,99503.66
2022-09-16T15:15:24.803Z,99501.38
2022-09-16T15:18:05.803Z,99492.78
2022-09-16T15:20:48.010Z,99495.16
2022-09-16T15:23:30.345Z,99495.50
2022-09-16T15:26:18.644Z,99497.91
2022-09-16T15:29:01.472Z,99501.28
2022-09-16T15:31:45.151Z,99495.34
2022-09-16T15:34:28.317Z,99490.84
2022-09-16T15:37:36.100Z,99505.41
2022-09-16T15:40:23.766Z,99502.59
2022-09-16T15:43:19.826Z,99504.19
2022-09-16T15:46:05.064Z,99498.22
2022-09-16T15:48:55.943Z,99504.22
2022-09-16T15:51:39.183Z,99509.56
2022-09-16T15:54:25.389Z,99507.59
2022-09-16T15:57:05.676Z,99510.28
2022-09-16T15:59:48.891Z,99502.28
2022-09-16T16:02:33.103Z,99496.66
2022-09-16T16:05:16.252Z,99494.00
2022-09-16T16:07:56.182Z,99499.66
